sensor_id;sensor_type;location;lat;lon;timestamp;P1;durP1;ratioP1;P2;durP2;ratioP2
1296;SDS011;641;48.492;9.184;2023-02-15T00:00:42;33.00;;;17.90;;
1296;SDS011;641;48.492;9.184;2023-02-15T00:03:08;33.17;;;17.47;;
1296;SDS011;641;48.492;9.184;2023-02-15T00:05:34;32.73;;;17.93;;
1296;SDS011;641;48.492;9.184;2023-02-15T00:08:00;40.67;;;20.47;;
1296;SDS011;641;48.492;9.184;2023-02-15T00:10:26;34.60;;;18.73;;
1296;SDS011;641;48.492;9.184;2023-02-15T00:12:52;42.13;;;20.80;;
1296;SDS011;641;48.492;9.184;2023-02-15T00:15:18;42.10;;;21.83;;
1296;SDS011;641;48.492;9.184;2023-02-15T00:17:44;44.70;;;21.97;;
1296;SDS011;641;48.492;9.184;2023-02-15T00:20:10;44.10;;;20.90;;
1296;SDS011;641;48.492;9.184;2023-02-15T00:22:36;42.63;;;21.20;;
1296;SDS011;641;48.492;9.184;2023-02-15T00:25:02;45.17;;;20.97;;
1296;SDS011;641;48.492;9.184;2023-02-15T00:27:28;41.47;;;20.65;;
1296;SDS011;641;48.492;9.184;2023-02-15T00:29:54;36.20;;;20.63;;
1296;SDS011;641;48.492;9.184;2023-02-15T00:32:20;35.17;;;21.03;;
1296;SDS011;641;48.492;9.184;2023-02-15T00:34:46;37.07;;;20.40;;
1296;SDS011;641;48.492;9.184;2023-02-15T00:37:12;38.27;;;20.10;;
1296;SDS011;641;48.492;9.184;2023-02-15T00:39:38;33.77;;;18.03;;
1296;SDS011;641;48.492;9.184;2023-02-15T00:42:04;36.47;;;18.50;;
1296;SDS011;641;48.492;9.184;2023-02-15T00:44:30;36.67;;;19.77;;
1296;SDS011;641;48.492;9.184;2023-02-15T00:46:56;35.00;;;18.57;;
1296;SDS011;641;48.492;9.184;2023-02-15T00:49:22;33.97;;;18.00;;
1296;SDS011;641;48.492;9.184;2023-02-15T00:51:48;36.07;;;18.63;;
1296;SDS011;641;48.492;9.184;2023-02-15T00:54:14;37.70;;;18.10;;
1296;SDS011;641;48.492;9.184;2023-02-15T00:56:40;41.05;;;19.98;;
1296;SDS011;641;48.492;9.184;2023-02-15T00:59:07;37.53;;;20.17;;
1296;SDS011;641;48.492;9.184;2023-02-15T01:01:33;36.08;;;18.70;;
1296;SDS011;641;48.492;9.184;2023-02-15T01:03:59;33.07;;;18.47;;
1296;SDS011;641;48.492;9.184;2023-02-15T01:06:25;42.07;;;18.90;;
1296;SDS011;641;48.492;9.184;2023-02-15T01:08:51;29.07;;;18.17;;
1296;SDS011;641;48.492;9.184;2023-02-15T01:11:18;34.95;;;18.80;;
1296;SDS011;641;48.492;9.184;2023-02-15T01:13:46;36.95;;;18.60;;
1296;SDS011;641;48.492;9.184;2023-02-15T01:16:12;33.67;;;17.92;;
1296;SDS011;641;48.492;9.184;2023-02-15T01:18:38;33.17;;;18.87;;
1296;SDS011;641;48.492;9.184;2023-02-15T01:21:11;29.17;;;16.87;;
1296;SDS011;641;48.492;9.184;2023-02-15T01:23:38;35.65;;;18.60;;
1296;SDS011;641;48.492;9.184;2023-02-15T01:26:04;34.20;;;16.97;;
1296;SDS011;641;48.492;9.184;2023-02-15T01:28:30;33.40;;;18.87;;
1296;SDS011;641;48.492;9.184;2023-02-15T01:30:57;32.25;;;17.10;;
1296;SDS011;641;48.492;9.184;2023-02-15T01:33:24;36.83;;;19.70;;
1296;SDS011;641;48.492;9.184;2023-02-15T01:35:55;35.85;;;19.00;;
1296;SDS011;641;48.492;9.184;2023-02-15T01:38:21;37.92;;;18.65;;
1296;SDS011;641;48.492;9.184;2023-02-15T01:40:50;34.90;;;17.00;;
1296;SDS011;641;48.492;9.184;2023-02-15T01:43:16;37.03;;;19.20;;
1296;SDS011;641;48.492;9.184;2023-02-15T01:45:43;35.70;;;18.75;;
1296;SDS011;641;48.492;9.184;2023-02-15T01:48:19;32.60;;;17.55;;
1296;SDS011;641;48.492;9.184;2023-02-15T01:50:53;33.38;;;16.35;;
1296;SDS011;641;48.492;9.184;2023-02-15T01:53:39;33.05;;;16.45;;
1296;SDS011;641;48.492;9.184;2023-02-15T01:56:09;37.78;;;18.08;;
1296;SDS011;641;48.492;9.184;2023-02-15T01:58:38;33.30;;;17.70;;
1296;SDS011;641;48.492;9.184;2023-02-15T02:01:04;33.93;;;17.17;;
1296;SDS011;641;48.492;9.184;2023-02-15T02:03:48;33.17;;;16.70;;
1296;SDS011;641;48.492;9.184;2023-02-15T02:06:15;32.50;;;16.08;;
1296;SDS011;641;48.492;9.184;2023-02-15T02:08:42;32.40;;;16.80;;
1296;SDS011;641;48.492;9.184;2023-02-15T02:11:12;32.95;;;16.83;;
1296;SDS011;641;48.492;9.184;2023-02-15T02:13:39;34.90;;;17.30;;
1296;SDS011;641;48.492;9.184;2023-02-15T02:16:14;33.33;;;16.73;;
1296;SDS011;641;48.492;9.184;2023-02-15T02:18:55;28.48;;;15.45;;
1296;SDS011;641;48.492;9.184;2023-02-15T02:29:32;33.42;;;17.33;;
1296;SDS011;641;48.492;9.184;2023-02-15T02:32:13;32.25;;;16.50;;
1296;SDS011;641;48.492;9.184;2023-02-15T02:37:42;32.95;;;16.85;;
1296;SDS011;641;48.492;9.184;2023-02-15T02:40:20;32.60;;;16.08;;
1296;SDS011;641;48.492;9.184;2023-02-15T02:42:49;29.52;;;15.70;;
1296;SDS011;641;48.492;9.184;2023-02-15T02:45:24;31.95;;;15.77;;
1296;SDS011;641;48.492;9.184;2023-02-15T02:47:52;36.15;;;16.92;;
1296;SDS011;641;48.492;9.184;2023-02-15T02:50:29;32.15;;;16.73;;
1296;SDS011;641;48.492;9.184;2023-02-15T02:52:56;29.52;;;16.63;;
1296;SDS011;641;48.492;9.184;2023-02-15T02:55:23;37.03;;;19.67;;
1296;SDS011;641;48.492;9.184;2023-02-15T02:57:55;40.63;;;20.95;;
1296;SDS011;641;48.492;9.184;2023-02-15T03:00:23;37.42;;;18.33;;
1296;SDS011;641;48.492;9.184;2023-02-15T03:02:51;38.35;;;19.80;;
1296;SDS011;641;48.492;9.184;2023-02-15T03:05:21;36.10;;;18.90;;
1296;SDS011;641;48.492;9.184;2023-02-15T03:07:50;35.40;;;18.55;;
1296;SDS011;641;48.492;9.184;2023-02-15T03:10:17;31.83;;;16.70;;
1296;SDS011;641;48.492;9.184;2023-02-15T03:12:43;36.70;;;17.40;;
1296;SDS011;641;48.492;9.184;2023-02-15T03:15:14;32.25;;;14.88;;
1296;SDS011;641;48.492;9.184;2023-02-15T03:17:42;36.17;;;15.13;;
1296;SDS011;641;48.492;9.184;2023-02-15T03:20:20;27.95;;;15.80;;
1296;SDS011;641;48.492;9.184;2023-02-15T03:25:38;29.95;;;14.70;;
1296;SDS011;641;48.492;9.184;2023-02-15T03:28:06;33.38;;;16.27;;
1296;SDS011;641;48.492;9.184;2023-02-15T03:30:34;28.67;;;15.30;;
1296;SDS011;641;48.492;9.184;2023-02-15T03:33:00;25.13;;;13.90;;
1296;SDS011;641;48.492;9.184;2023-02-15T03:35:31;26.40;;;13.98;;
1296;SDS011;641;48.492;9.184;2023-02-15T03:38:00;32.78;;;15.45;;
1296;SDS011;641;48.492;9.184;2023-02-15T03:40:30;33.28;;;15.45;;
1296;SDS011;641;48.492;9.184;2023-02-15T03:45:46;34.28;;;15.27;;
1296;SDS011;641;48.492;9.184;2023-02-15T03:48:22;32.80;;;15.63;;
1296;SDS011;641;48.492;9.184;2023-02-15T03:50:50;27.80;;;15.70;;
1296;SDS011;641;48.492;9.184;2023-02-15T03:53:36;28.52;;;14.93;;
1296;SDS011;641;48.492;9.184;2023-02-15T03:56:03;30.50;;;15.32;;
1296;SDS011;641;48.492;9.184;2023-02-15T03:58:29;28.88;;;14.95;;
1296;SDS011;641;48.492;9.184;2023-02-15T04:01:17;33.25;;;17.20;;
1296;SDS011;641;48.492;9.184;2023-02-15T04:04:07;32.85;;;14.18;;
1296;SDS011;641;48.492;9.184;2023-02-15T04:06:34;33.83;;;15.25;;
1296;SDS011;641;48.492;9.184;2023-02-15T04:09:00;27.43;;;14.53;;
1296;SDS011;641;48.492;9.184;2023-02-15T04:11:45;36.60;;;15.15;;
1296;SDS011;641;48.492;9.184;2023-02-15T04:14:11;34.50;;;16.00;;
1296;SDS011;641;48.492;9.184;2023-02-15T04:16:55;32.67;;;15.75;;
1296;SDS011;641;48.492;9.184;2023-02-15T04:19:21;26.97;;;13.60;;
1296;SDS011;641;48.492;9.184;2023-02-15T04:22:06;31.13;;;14.82;;
1296;SDS011;641;48.492;9.184;2023-02-15T04:24:50;26.77;;;13.70;;
1296;SDS011;641;48.492;9.184;2023-02-15T04:27:35;27.70;;;13.90;;
1296;SDS011;641;48.492;9.184;2023-02-15T04:30:01;31.83;;;14.02;;
1296;SDS011;641;48.492;9.184;2023-02-15T04:32:28;35.45;;;16.40;;
1296;SDS011;641;48.492;9.184;2023-02-15T04:34:54;27.43;;;14.20;;
1296;SDS011;641;48.492;9.184;2023-02-15T04:37:20;35.30;;;16.70;;
1296;SDS011;641;48.492;9.184;2023-02-15T04:39:45;34.27;;;15.07;;
1296;SDS011;641;48.492;9.184;2023-02-15T04:42:11;27.90;;;14.53;;
1296;SDS011;641;48.492;9.184;2023-02-15T04:44:37;25.13;;;13.30;;
1296;SDS011;641;48.492;9.184;2023-02-15T04:47:05;28.33;;;14.43;;
1296;SDS011;641;48.492;9.184;2023-02-15T04:49:31;28.93;;;14.20;;
1296;SDS011;641;48.492;9.184;2023-02-15T04:51:57;29.90;;;15.60;;
1296;SDS011;641;48.492;9.184;2023-02-15T04:54:23;29.60;;;15.35;;
1296;SDS011;641;48.492;9.184;2023-02-15T04:56:49;28.77;;;13.23;;
1296;SDS011;641;48.492;9.184;2023-02-15T04:59:15;24.25;;;13.23;;
1296;SDS011;641;48.492;9.184;2023-02-15T05:01:41;27.10;;;14.48;;
1296;SDS011;641;48.492;9.184;2023-02-15T05:04:07;52.40;;;28.07;;
1296;SDS011;641;48.492;9.184;2023-02-15T05:06:34;39.10;;;17.25;;
1296;SDS011;641;48.492;9.184;2023-02-15T05:09:00;27.73;;;14.40;;
1296;SDS011;641;48.492;9.184;2023-02-15T05:11:26;35.70;;;15.47;;
1296;SDS011;641;48.492;9.184;2023-02-15T05:13:52;32.85;;;16.52;;
1296;SDS011;641;48.492;9.184;2023-02-15T05:16:18;29.10;;;15.13;;
1296;SDS011;641;48.492;9.184;2023-02-15T05:18:44;28.95;;;15.98;;
1296;SDS011;641;48.492;9.184;2023-02-15T05:21:10;24.30;;;14.17;;
1296;SDS011;641;48.492;9.184;2023-02-15T05:23:36;29.13;;;14.00;;
1296;SDS011;641;48.492;9.184;2023-02-15T05:26:02;31.30;;;16.05;;
1296;SDS011;641;48.492;9.184;2023-02-15T05:28:46;33.03;;;15.82;;
1296;SDS011;641;48.492;9.184;2023-02-15T05:31:14;33.10;;;16.77;;
1296;SDS011;641;48.492;9.184;2023-02-15T05:33:40;37.42;;;17.35;;
1296;SDS011;641;48.492;9.184;2023-02-15T05:36:06;27.52;;;15.27;;
1296;SDS011;641;48.492;9.184;2023-02-15T05:38:32;29.50;;;14.32;;
1296;SDS011;641;48.492;9.184;2023-02-15T05:40:58;34.80;;;14.40;;
1296;SDS011;641;48.492;9.184;2023-02-15T05:43:24;25.73;;;13.70;;
1296;SDS011;641;48.492;9.184;2023-02-15T05:45:51;30.23;;;15.10;;
1296;SDS011;641;48.492;9.184;2023-02-15T05:48:18;26.45;;;13.60;;
1296;SDS011;641;48.492;9.184;2023-02-15T05:50:45;26.58;;;14.52;;
1296;SDS011;641;48.492;9.184;2023-02-15T05:53:11;27.42;;;13.43;;
1296;SDS011;641;48.492;9.184;2023-02-15T05:55:38;26.98;;;13.13;;
1296;SDS011;641;48.492;9.184;2023-02-15T05:58:04;26.83;;;13.52;;
1296;SDS011;641;48.492;9.184;2023-02-15T06:00:30;27.75;;;14.77;;
1296;SDS011;641;48.492;9.184;2023-02-15T06:02:56;23.40;;;12.87;;
1296;SDS011;641;48.492;9.184;2023-02-15T06:05:22;23.80;;;12.07;;
1296;SDS011;641;48.492;9.184;2023-02-15T06:07:47;24.23;;;12.87;;
1296;SDS011;641;48.492;9.184;2023-02-15T06:10:14;24.00;;;11.23;;
1296;SDS011;641;48.492;9.184;2023-02-15T06:12:40;23.52;;;12.80;;
1296;SDS011;641;48.492;9.184;2023-02-15T06:15:06;29.60;;;12.87;;
1296;SDS011;641;48.492;9.184;2023-02-15T06:17:32;25.88;;;12.70;;
1296;SDS011;641;48.492;9.184;2023-02-15T06:19:58;28.10;;;13.47;;
1296;SDS011;641;48.492;9.184;2023-02-15T06:22:24;23.40;;;11.93;;
1296;SDS011;641;48.492;9.184;2023-02-15T06:24:49;25.70;;;12.27;;
1296;SDS011;641;48.492;9.184;2023-02-15T06:27:15;26.17;;;13.67;;
1296;SDS011;641;48.492;9.184;2023-02-15T06:29:41;24.58;;;11.73;;
1296;SDS011;641;48.492;9.184;2023-02-15T06:32:07;26.98;;;13.50;;
1296;SDS011;641;48.492;9.184;2023-02-15T06:34:33;26.50;;;12.50;;
1296;SDS011;641;48.492;9.184;2023-02-15T06:36:59;27.90;;;14.00;;
1296;SDS011;641;48.492;9.184;2023-02-15T06:39:25;24.03;;;11.80;;
1296;SDS011;641;48.492;9.184;2023-02-15T06:41:51;30.27;;;14.57;;
1296;SDS011;641;48.492;9.184;2023-02-15T06:44:17;25.83;;;13.30;;
1296;SDS011;641;48.492;9.184;2023-02-15T06:46:43;30.93;;;13.97;;
1296;SDS011;641;48.492;9.184;2023-02-15T06:49:09;24.37;;;12.90;;
1296;SDS011;641;48.492;9.184;2023-02-15T06:51:35;30.17;;;13.77;;
1296;SDS011;641;48.492;9.184;2023-02-15T06:54:01;27.73;;;14.70;;
1296;SDS011;641;48.492;9.184;2023-02-15T06:56:27;30.57;;;13.90;;
1296;SDS011;641;48.492;9.184;2023-02-15T06:58:53;25.00;;;13.27;;
1296;SDS011;641;48.492;9.184;2023-02-15T07:01:19;26.02;;;13.07;;
1296;SDS011;641;48.492;9.184;2023-02-15T07:03:45;24.45;;;14.07;;
1296;SDS011;641;48.492;9.184;2023-02-15T07:06:11;22.70;;;12.68;;
1296;SDS011;641;48.492;9.184;2023-02-15T07:08:38;24.97;;;12.80;;
1296;SDS011;641;48.492;9.184;2023-02-15T07:11:04;24.13;;;12.52;;
1296;SDS011;641;48.492;9.184;2023-02-15T07:13:49;26.35;;;14.23;;
1296;SDS011;641;48.492;9.184;2023-02-15T07:16:17;24.67;;;12.85;;
1296;SDS011;641;48.492;9.184;2023-02-15T07:18:43;22.90;;;12.53;;
1296;SDS011;641;48.492;9.184;2023-02-15T07:21:09;29.40;;;15.80;;
1296;SDS011;641;48.492;9.184;2023-02-15T07:23:35;33.17;;;13.60;;
1296;SDS011;641;48.492;9.184;2023-02-15T07:26:01;26.48;;;13.40;;
1296;SDS011;641;48.492;9.184;2023-02-15T07:28:28;26.50;;;13.20;;
1296;SDS011;641;48.492;9.184;2023-02-15T07:30:54;27.60;;;13.88;;
1296;SDS011;641;48.492;9.184;2023-02-15T07:33:19;23.17;;;12.50;;
1296;SDS011;641;48.492;9.184;2023-02-15T07:35:48;26.80;;;12.63;;
1296;SDS011;641;48.492;9.184;2023-02-15T07:38:23;25.95;;;12.60;;
1296;SDS011;641;48.492;9.184;2023-02-15T07:40:49;23.50;;;13.07;;
1296;SDS011;641;48.492;9.184;2023-02-15T07:43:15;20.92;;;11.70;;
1296;SDS011;641;48.492;9.184;2023-02-15T07:45:41;25.93;;;12.07;;
1296;SDS011;641;48.492;9.184;2023-02-15T07:48:07;27.00;;;13.50;;
1296;SDS011;641;48.492;9.184;2023-02-15T07:50:32;27.40;;;13.57;;
1296;SDS011;641;48.492;9.184;2023-02-15T07:53:00;29.75;;;14.60;;
1296;SDS011;641;48.492;9.184;2023-02-15T07:55:27;30.40;;;15.02;;
1296;SDS011;641;48.492;9.184;2023-02-15T08:01:15;28.15;;;14.52;;
1296;SDS011;641;48.492;9.184;2023-02-15T08:03:40;25.90;;;15.37;;
1296;SDS011;641;48.492;9.184;2023-02-15T08:06:06;22.63;;;11.43;;
1296;SDS011;641;48.492;9.184;2023-02-15T08:08:33;29.43;;;14.00;;
1296;SDS011;641;48.492;9.184;2023-02-15T08:11:22;32.38;;;16.70;;
1296;SDS011;641;48.492;9.184;2023-02-15T08:21:47;27.35;;;13.43;;
1296;SDS011;641;48.492;9.184;2023-02-15T08:24:17;26.17;;;14.20;;
1296;SDS011;641;48.492;9.184;2023-02-15T08:26:44;33.67;;;13.80;;
1296;SDS011;641;48.492;9.184;2023-02-15T08:29:12;25.05;;;13.23;;
1296;SDS011;641;48.492;9.184;2023-02-15T08:31:39;24.37;;;11.73;;
1296;SDS011;641;48.492;9.184;2023-02-15T08:34:06;23.23;;;12.30;;
1296;SDS011;641;48.492;9.184;2023-02-15T08:36:33;23.35;;;12.43;;
1296;SDS011;641;48.492;9.184;2023-02-15T08:38:59;22.20;;;11.70;;
1296;SDS011;641;48.492;9.184;2023-02-15T08:41:27;28.70;;;14.57;;
1296;SDS011;641;48.492;9.184;2023-02-15T08:43:55;23.00;;;12.83;;
1296;SDS011;641;48.492;9.184;2023-02-15T08:46:23;24.40;;;11.50;;
1296;SDS011;641;48.492;9.184;2023-02-15T08:48:51;22.00;;;11.27;;
1296;SDS011;641;48.492;9.184;2023-02-15T08:51:21;24.50;;;12.50;;
1296;SDS011;641;48.492;9.184;2023-02-15T08:53:49;28.77;;;11.60;;
1296;SDS011;641;48.492;9.184;2023-02-15T08:56:21;22.80;;;12.83;;
1296;SDS011;641;48.492;9.184;2023-02-15T08:58:48;20.67;;;10.57;;
1296;SDS011;641;48.492;9.184;2023-02-15T09:01:16;20.57;;;11.47;;
1296;SDS011;641;48.492;9.184;2023-02-15T09:03:44;21.00;;;9.90;;
1296;SDS011;641;48.492;9.184;2023-02-15T09:06:10;22.17;;;9.80;;
1296;SDS011;641;48.492;9.184;2023-02-15T09:08:36;22.07;;;10.30;;
1296;SDS011;641;48.492;9.184;2023-02-15T09:11:06;16.37;;;8.90;;
1296;SDS011;641;48.492;9.184;2023-02-15T09:13:32;15.53;;;8.57;;
1296;SDS011;641;48.492;9.184;2023-02-15T09:15:59;18.23;;;9.77;;
1296;SDS011;641;48.492;9.184;2023-02-15T09:18:26;18.30;;;9.20;;
1296;SDS011;641;48.492;9.184;2023-02-15T09:20:52;17.33;;;10.20;;
1296;SDS011;641;48.492;9.184;2023-02-15T09:23:17;20.50;;;10.30;;
1296;SDS011;641;48.492;9.184;2023-02-15T09:25:43;22.40;;;11.20;;
1296;SDS011;641;48.492;9.184;2023-02-15T09:28:08;20.63;;;11.17;;
1296;SDS011;641;48.492;9.184;2023-02-15T09:30:34;25.87;;;12.07;;
1296;SDS011;641;48.492;9.184;2023-02-15T09:32:59;22.60;;;10.83;;
1296;SDS011;641;48.492;9.184;2023-02-15T09:35:25;23.57;;;11.27;;
1296;SDS011;641;48.492;9.184;2023-02-15T09:37:51;27.10;;;13.27;;
1296;SDS011;641;48.492;9.184;2023-02-15T09:40:16;20.83;;;10.90;;
1296;SDS011;641;48.492;9.184;2023-02-15T09:42:55;22.80;;;11.33;;
1296;SDS011;641;48.492;9.184;2023-02-15T09:48:41;19.93;;;10.50;;
1296;SDS011;641;48.492;9.184;2023-02-15T09:56:30;19.30;;;11.00;;
1296;SDS011;641;48.492;9.184;2023-02-15T09:59:15;16.47;;;10.20;;
1296;SDS011;641;48.492;9.184;2023-02-15T10:07:20;21.90;;;10.10;;
1296;SDS011;641;48.492;9.184;2023-02-15T10:16:23;22.37;;;9.90;;
1296;SDS011;641;48.492;9.184;2023-02-15T10:24:25;24.73;;;10.63;;
1296;SDS011;641;48.492;9.184;2023-02-15T10:27:07;21.50;;;11.50;;
1296;SDS011;641;48.492;9.184;2023-02-15T10:29:38;21.80;;;10.60;;
1296;SDS011;641;48.492;9.184;2023-02-15T10:32:22;20.70;;;10.00;;
1296;SDS011;641;48.492;9.184;2023-02-15T10:50:34;23.10;;;10.80;;
1296;SDS011;641;48.492;9.184;2023-02-15T10:53:22;27.07;;;11.90;;
1296;SDS011;641;48.492;9.184;2023-02-15T10:59:07;20.57;;;12.00;;
1296;SDS011;641;48.492;9.184;2023-02-15T11:01:55;21.43;;;10.40;;
1296;SDS011;641;48.492;9.184;2023-02-15T11:05:29;18.80;;;10.40;;
1296;SDS011;641;48.492;9.184;2023-02-15T11:07:49;18.20;;;8.17;;
1296;SDS011;641;48.492;9.184;2023-02-15T11:10:32;13.83;;;6.77;;
1296;SDS011;641;48.492;9.184;2023-02-15T11:13:05;17.17;;;10.37;;
1296;SDS011;641;48.492;9.184;2023-02-15T11:15:38;16.90;;;7.70;;
1296;SDS011;641;48.492;9.184;2023-02-15T11:18:34;19.13;;;8.90;;
1296;SDS011;641;48.492;9.184;2023-02-15T11:24:07;16.53;;;8.70;;
1296;SDS011;641;48.492;9.184;2023-02-15T11:29:23;28.30;;;9.90;;
1296;SDS011;641;48.492;9.184;2023-02-15T11:31:57;14.07;;;7.20;;
1296;SDS011;641;48.492;9.184;2023-02-15T11:34:35;22.03;;;8.20;;
1296;SDS011;641;48.492;9.184;2023-02-15T11:37:07;15.50;;;7.97;;
1296;SDS011;641;48.492;9.184;2023-02-15T11:39:42;19.83;;;9.80;;
1296;SDS011;641;48.492;9.184;2023-02-15T11:42:16;21.43;;;8.57;;
1296;SDS011;641;48.492;9.184;2023-02-15T11:44:54;18.87;;;10.00;;
1296;SDS011;641;48.492;9.184;2023-02-15T11:47:56;15.20;;;8.23;;
1296;SDS011;641;48.492;9.184;2023-02-15T11:50:24;14.97;;;8.80;;
1296;SDS011;641;48.492;9.184;2023-02-15T11:52:52;16.33;;;8.83;;
1296;SDS011;641;48.492;9.184;2023-02-15T11:55:25;17.47;;;9.40;;
1296;SDS011;641;48.492;9.184;2023-02-15T11:58:01;17.77;;;10.53;;
1296;SDS011;641;48.492;9.184;2023-02-15T12:00:46;18.67;;;8.93;;
1296;SDS011;641;48.492;9.184;2023-02-15T12:05:56;16.17;;;7.23;;
1296;SDS011;641;48.492;9.184;2023-02-15T12:08:30;17.50;;;7.87;;
1296;SDS011;641;48.492;9.184;2023-02-15T12:11:12;13.30;;;7.20;;
1296;SDS011;641;48.492;9.184;2023-02-15T12:16:22;15.90;;;7.57;;
1296;SDS011;641;48.492;9.184;2023-02-15T12:18:49;14.53;;;6.00;;
1296;SDS011;641;48.492;9.184;2023-02-15T12:21:25;17.00;;;7.43;;
1296;SDS011;641;48.492;9.184;2023-02-15T12:24:18;13.77;;;6.87;;
1296;SDS011;641;48.492;9.184;2023-02-15T12:26:59;19.60;;;7.80;;
1296;SDS011;641;48.492;9.184;2023-02-15T12:29:27;15.30;;;7.63;;
1296;SDS011;641;48.492;9.184;2023-02-15T12:31:55;17.03;;;8.67;;
1296;SDS011;641;48.492;9.184;2023-02-15T12:34:29;17.60;;;9.07;;
1296;SDS011;641;48.492;9.184;2023-02-15T12:37:00;16.10;;;8.30;;
1296;SDS011;641;48.492;9.184;2023-02-15T12:39:33;16.10;;;8.60;;
1296;SDS011;641;48.492;9.184;2023-02-15T12:42:01;15.13;;;7.70;;
1296;SDS011;641;48.492;9.184;2023-02-15T12:44:38;17.93;;;7.87;;
1296;SDS011;641;48.492;9.184;2023-02-15T12:47:22;15.43;;;8.00;;
1296;SDS011;641;48.492;9.184;2023-02-15T12:52:45;15.93;;;8.50;;
1296;SDS011;641;48.492;9.184;2023-02-15T12:55:23;17.30;;;8.90;;
1296;SDS011;641;48.492;9.184;2023-02-15T13:00:35;15.03;;;7.80;;
1296;SDS011;641;48.492;9.184;2023-02-15T13:03:01;14.63;;;6.57;;
1296;SDS011;641;48.492;9.184;2023-02-15T13:05:35;15.60;;;6.13;;
1296;SDS011;641;48.492;9.184;2023-02-15T13:08:17;14.80;;;7.70;;
1296;SDS011;641;48.492;9.184;2023-02-15T13:10:59;13.70;;;7.10;;
1296;SDS011;641;48.492;9.184;2023-02-15T13:13:26;13.23;;;6.33;;
1296;SDS011;641;48.492;9.184;2023-02-15T13:16:09;15.40;;;7.00;;
1296;SDS011;641;48.492;9.184;2023-02-15T13:18:38;16.17;;;6.10;;
1296;SDS011;641;48.492;9.184;2023-02-15T13:21:12;12.50;;;5.40;;
1296;SDS011;641;48.492;9.184;2023-02-15T13:23:42;13.30;;;6.07;;
1296;SDS011;641;48.492;9.184;2023-02-15T13:26:17;17.00;;;5.80;;
1296;SDS011;641;48.492;9.184;2023-02-15T13:28:46;10.83;;;5.47;;
1296;SDS011;641;48.492;9.184;2023-02-15T13:31:15;11.53;;;4.67;;
1296;SDS011;641;48.492;9.184;2023-02-15T13:33:55;11.20;;;4.60;;
1296;SDS011;641;48.492;9.184;2023-02-15T13:36:30;15.40;;;5.07;;
1296;SDS011;641;48.492;9.184;2023-02-15T13:42:11;13.27;;;5.93;;
1296;SDS011;641;48.492;9.184;2023-02-15T13:47:45;12.60;;;6.10;;
1296;SDS011;641;48.492;9.184;2023-02-15T13:56:01;13.80;;;5.60;;
1296;SDS011;641;48.492;9.184;2023-02-15T14:01:15;13.47;;;7.00;;
1296;SDS011;641;48.492;9.184;2023-02-15T14:06:58;16.43;;;7.93;;
1296;SDS011;641;48.492;9.184;2023-02-15T14:15:26;19.60;;;9.30;;
1296;SDS011;641;48.492;9.184;2023-02-15T14:21:10;17.93;;;8.37;;
1296;SDS011;641;48.492;9.184;2023-02-15T14:24:07;17.30;;;7.03;;
1296;SDS011;641;48.492;9.184;2023-02-15T14:26:47;13.90;;;6.73;;
1296;SDS011;641;48.492;9.184;2023-02-15T14:31:53;19.83;;;6.80;;
1296;SDS011;641;48.492;9.184;2023-02-15T14:34:24;16.97;;;6.77;;
1296;SDS011;641;48.492;9.184;2023-02-15T14:36:54;15.47;;;6.30;;
1296;SDS011;641;48.492;9.184;2023-02-15T14:39:24;15.77;;;6.37;;
1296;SDS011;641;48.492;9.184;2023-02-15T14:42:17;11.13;;;5.63;;
1296;SDS011;641;48.492;9.184;2023-02-15T14:45:27;14.03;;;6.13;;
1296;SDS011;641;48.492;9.184;2023-02-15T14:47:56;15.37;;;6.10;;
1296;SDS011;641;48.492;9.184;2023-02-15T15:01:29;12.20;;;6.10;;
1296;SDS011;641;48.492;9.184;2023-02-15T15:04:06;11.60;;;5.40;;
1296;SDS011;641;48.492;9.184;2023-02-15T15:06:57;14.47;;;5.30;;
1296;SDS011;641;48.492;9.184;2023-02-15T15:09:33;13.23;;;6.20;;
1296;SDS011;641;48.492;9.184;2023-02-15T15:14:49;13.40;;;5.80;;
1296;SDS011;641;48.492;9.184;2023-02-15T15:18:00;12.50;;;4.67;;
1296;SDS011;641;48.492;9.184;2023-02-15T15:28:07;12.50;;;4.30;;
1296;SDS011;641;48.492;9.184;2023-02-15T15:30:53;11.93;;;4.97;;
1296;SDS011;641;48.492;9.184;2023-02-15T15:40:13;10.97;;;4.27;;
1296;SDS011;641;48.492;9.184;2023-02-15T15:43:10;19.13;;;5.33;;
1296;SDS011;641;48.492;9.184;2023-02-15T15:46:01;25.40;;;4.80;;
1296;SDS011;641;48.492;9.184;2023-02-15T15:48:49;11.00;;;4.47;;
1296;SDS011;641;48.492;9.184;2023-02-15T15:51:20;11.27;;;4.70;;
1296;SDS011;641;48.492;9.184;2023-02-15T15:53:52;11.50;;;5.17;;
1296;SDS011;641;48.492;9.184;2023-02-15T15:56:29;13.47;;;6.07;;
1296;SDS011;641;48.492;9.184;2023-02-15T15:58:59;14.30;;;4.57;;
1296;SDS011;641;48.492;9.184;2023-02-15T16:01:28;10.87;;;5.13;;
1296;SDS011;641;48.492;9.184;2023-02-15T16:03:56;13.43;;;6.30;;
1296;SDS011;641;48.492;9.184;2023-02-15T16:06:41;12.70;;;6.03;;
1296;SDS011;641;48.492;9.184;2023-02-15T16:09:23;14.13;;;6.23;;
1296;SDS011;641;48.492;9.184;2023-02-15T16:11:51;14.47;;;5.93;;
1296;SDS011;641;48.492;9.184;2023-02-15T16:17:00;15.57;;;6.63;;
1296;SDS011;641;48.492;9.184;2023-02-15T16:19:30;15.50;;;7.47;;
1296;SDS011;641;48.492;9.184;2023-02-15T16:22:00;12.83;;;6.33;;
1296;SDS011;641;48.492;9.184;2023-02-15T16:27:41;17.00;;;8.70;;
1296;SDS011;641;48.492;9.184;2023-02-15T16:32:46;17.17;;;8.50;;
1296;SDS011;641;48.492;9.184;2023-02-15T16:35:13;16.30;;;8.33;;
1296;SDS011;641;48.492;9.184;2023-02-15T16:37:41;22.70;;;8.50;;
1296;SDS011;641;48.492;9.184;2023-02-15T16:40:32;15.00;;;8.27;;
1296;SDS011;641;48.492;9.184;2023-02-15T16:43:01;14.60;;;8.00;;
1296;SDS011;641;48.492;9.184;2023-02-15T16:45:31;15.97;;;7.50;;
1296;SDS011;641;48.492;9.184;2023-02-15T16:47:58;15.57;;;7.80;;
1296;SDS011;641;48.492;9.184;2023-02-15T16:50:30;18.33;;;8.20;;
1296;SDS011;641;48.492;9.184;2023-02-15T16:52:58;15.80;;;7.93;;
1296;SDS011;641;48.492;9.184;2023-02-15T16:55:26;15.33;;;6.73;;
1296;SDS011;641;48.492;9.184;2023-02-15T16:58:00;19.30;;;8.30;;
1296;SDS011;641;48.492;9.184;2023-02-15T17:00:30;18.23;;;8.30;;
1296;SDS011;641;48.492;9.184;2023-02-15T17:05:33;22.33;;;8.70;;
1296;SDS011;641;48.492;9.184;2023-02-15T17:08:14;16.73;;;8.40;;
1296;SDS011;641;48.492;9.184;2023-02-15T17:11:00;20.23;;;7.97;;
1296;SDS011;641;48.492;9.184;2023-02-15T17:13:30;22.10;;;8.77;;
1296;SDS011;641;48.492;9.184;2023-02-15T17:18:24;17.10;;;8.40;;
1296;SDS011;641;48.492;9.184;2023-02-15T17:20:59;18.73;;;7.77;;
1296;SDS011;641;48.492;9.184;2023-02-15T17:23:36;16.37;;;7.37;;
1296;SDS011;641;48.492;9.184;2023-02-15T17:26:11;14.70;;;5.60;;
1296;SDS011;641;48.492;9.184;2023-02-15T17:28:51;12.53;;;5.93;;
1296;SDS011;641;48.492;9.184;2023-02-15T17:31:21;14.93;;;6.77;;
1296;SDS011;641;48.492;9.184;2023-02-15T17:33:51;11.63;;;4.87;;
1296;SDS011;641;48.492;9.184;2023-02-15T17:36:20;18.83;;;5.00;;
1296;SDS011;641;48.492;9.184;2023-02-15T17:41:24;21.00;;;4.70;;
1296;SDS011;641;48.492;9.184;2023-02-15T17:43:55;12.10;;;4.67;;
1296;SDS011;641;48.492;9.184;2023-02-15T17:46:21;10.57;;;4.20;;
1296;SDS011;641;48.492;9.184;2023-02-15T17:48:48;13.30;;;5.40;;
1296;SDS011;641;48.492;9.184;2023-02-15T17:51:20;13.13;;;6.17;;
1296;SDS011;641;48.492;9.184;2023-02-15T17:53:46;17.03;;;6.90;;
1296;SDS011;641;48.492;9.184;2023-02-15T17:56:32;13.27;;;6.30;;
1296;SDS011;641;48.492;9.184;2023-02-15T17:58:58;15.37;;;6.77;;
1296;SDS011;641;48.492;9.184;2023-02-15T18:01:24;19.07;;;7.83;;
1296;SDS011;641;48.492;9.184;2023-02-15T18:04:10;19.13;;;8.57;;
1296;SDS011;641;48.492;9.184;2023-02-15T18:06:56;17.73;;;8.67;;
1296;SDS011;641;48.492;9.184;2023-02-15T18:09:40;20.50;;;9.10;;
1296;SDS011;641;48.492;9.184;2023-02-15T18:12:26;20.63;;;10.70;;
1296;SDS011;641;48.492;9.184;2023-02-15T18:14:53;18.77;;;10.57;;